createdAt,value
2022-10-10T00:01:16.853Z,4.15
2022-10-10T00:03:45.126Z,3.63
2022-10-10T00:06:14.125Z,3.85
2022-10-10T00:08:42.721Z,3.10
2022-10-10T00:11:11.875Z,3.65
2022-10-10T00:13:40.531Z,3.50
2022-10-10T00:16:08.722Z,8.60
2022-10-10T00:18:38.776Z,3.60
2022-10-10T00:21:07.484Z,3.58
2022-10-10T00:23:35.851Z,2.95
2022-10-10T00:26:08.781Z,3.75
2022-10-10T00:28:38.515Z,2.78
2022-10-10T00:31:07.484Z,3.67
2022-10-10T00:33:36.969Z,5.63
2022-10-10T00:36:05.364Z,3.92
2022-10-10T00:38:33.438Z,2.42
2022-10-10T00:41:01.915Z,3.90
2022-10-10T00:43:31.929Z,3.22
2022-10-10T00:46:00.243Z,6.68
2022-10-10T00:48:33.419Z,3.42
2022-10-10T00:51:06.456Z,2.78
2022-10-10T00:53:37.546Z,5.32
2022-10-10T00:56:06.534Z,2.90
2022-10-10T00:58:36.975Z,3.80
2022-10-10T01:01:05.445Z,5.55
2022-10-10T01:03:33.525Z,3.45
2022-10-10T01:06:03.137Z,3.67
2022-10-10T01:08:31.272Z,5.03
2022-10-10T01:11:12.985Z,3.15
2022-10-10T01:13:49.759Z,4.68
2022-10-10T01:16:24.823Z,2.95
2022-10-10T01:19:00.943Z,2.60
2022-10-10T01:21:37.478Z,5.80
2022-10-10T01:24:46.641Z,2.63
2022-10-10T01:27:31.158Z,3.47
2022-10-10T01:30:06.088Z,4.03
2022-10-10T01:32:39.524Z,2.20
2022-10-10T01:35:26.436Z,3.72
2022-10-10T01:38:01.578Z,8.13
2022-10-10T01:40:34.628Z,5.32
2022-10-10T01:43:05.502Z,3.15
2022-10-10T01:45:35.129Z,3.88
2022-10-10T01:48:04.941Z,3.28
2022-10-10T01:50:37.986Z,4.15
2022-10-10T01:53:12.171Z,2.58
2022-10-10T01:55:54.874Z,3.00
2022-10-10T01:58:52.745Z,7.38
2022-10-10T02:01:53.631Z,3.83
2022-10-10T02:04:30.976Z,5.43
2022-10-10T02:07:03.337Z,3.50
2022-10-10T02:09:36.882Z,5.10
2022-10-10T02:12:06.334Z,2.13
2022-10-10T02:14:38.891Z,6.43
2022-10-10T02:17:11.987Z,4.38
2022-10-10T02:19:45.600Z,3.38
2022-10-10T02:22:14.985Z,2.97
2022-10-10T02:24:43.695Z,4.13
2022-10-10T02:27:46.993Z,2.65
2022-10-10T02:30:16.414Z,2.72
2022-10-10T02:32:49.633Z,6.30
2022-10-10T02:35:20.947Z,2.88
2022-10-10T02:37:49.730Z,4.57
2022-10-10T02:40:23.302Z,4.47
2022-10-10T02:42:53.630Z,3.80
2022-10-10T02:45:22.906Z,2.65
2022-10-10T02:47:52.675Z,8.07
2022-10-10T02:50:21.478Z,3.63
2022-10-10T02:52:49.782Z,2.30
2022-10-10T02:55:18.149Z,3.50
2022-10-10T02:57:46.222Z,3.88
2022-10-10T03:00:15.290Z,5.05
2022-10-10T03:02:43.337Z,3.70
2022-10-10T03:05:12.997Z,2.58
2022-10-10T03:07:41.166Z,3.65
2022-10-10T03:10:10.514Z,3.25
2022-10-10T03:12:38.626Z,4.43
2022-10-10T03:15:11.416Z,4.13
2022-10-10T03:17:40.135Z,5.05
2022-10-10T03:20:09.469Z,3.63
2022-10-10T03:22:38.977Z,6.07
2022-10-10T03:25:07.879Z,4.80
2022-10-10T03:27:35.967Z,7.15
2022-10-10T03:30:04.185Z,4.03
2022-10-10T03:32:32.362Z,3.60
2022-10-10T03:35:00.446Z,4.05
2022-10-10T03:37:28.471Z,3.10
2022-10-10T03:39:57.878Z,3.45
2022-10-10T03:42:25.973Z,6.10
2022-10-10T03:44:54.014Z,3.35
2022-10-10T03:47:22.043Z,6.40
2022-10-10T03:49:50.107Z,4.13
2022-10-10T03:52:18.118Z,3.35
2022-10-10T03:54:46.187Z,3.15
2022-10-10T03:57:15.736Z,5.60
2022-10-10T03:59:43.814Z,5.63
2022-10-10T04:02:11.869Z,7.55
2022-10-10T04:04:39.914Z,6.72
2022-10-10T04:07:08.110Z,5.07
2022-10-10T04:09:36.125Z,5.25
2022-10-10T04:12:04.216Z,4.68
2022-10-10T04:14:33.655Z,5.03
2022-10-10T04:17:03.433Z,5.20
2022-10-10T04:19:31.607Z,3.70
2022-10-10T04:21:59.715Z,5.22
2022-10-10T04:24:28.011Z,4.88
2022-10-10T04:26:56.134Z,4.00
2022-10-10T04:29:24.380Z,4.75
2022-10-10T04:31:53.798Z,6.50
2022-10-10T04:34:21.926Z,3.63
2022-10-10T04:36:49.983Z,3.90
2022-10-10T04:39:18.035Z,5.70
2022-10-10T04:41:49.942Z,4.20
2022-10-10T04:46:46.243Z,4.22
2022-10-10T04:49:15.658Z,4.35
2022-10-10T04:51:43.735Z,6.57
2022-10-10T04:54:11.834Z,5.50
2022-10-10T04:56:41.151Z,3.65
2022-10-10T04:59:09.227Z,3.75
2022-10-10T05:01:37.428Z,4.85
2022-10-10T05:04:05.695Z,3.85
2022-10-10T05:06:35.463Z,4.50
2022-10-10T05:09:03.775Z,4.50
2022-10-10T05:11:31.840Z,5.93
2022-10-10T05:13:59.897Z,6.15
2022-10-10T05:16:28.003Z,6.78
2022-10-10T05:18:57.259Z,6.63
2022-10-10T05:21:25.375Z,4.53
2022-10-10T05:23:54.919Z,8.52
2022-10-10T05:26:23.139Z,6.72
2022-10-10T05:28:51.392Z,4.88
2022-10-10T05:31:19.426Z,5.47
2022-10-10T05:33:47.516Z,6.05
2022-10-10T05:36:15.844Z,6.75
2022-10-10T05:38:44.479Z,7.00
2022-10-10T05:41:13.914Z,4.28
2022-10-10T05:43:41.955Z,6.47
2022-10-10T05:46:10.119Z,7.70
2022-10-10T05:48:38.174Z,3.50
2022-10-10T05:51:08.140Z,4.88
2022-10-10T05:53:36.223Z,3.55
2022-10-10T05:56:04.286Z,5.53
2022-10-10T05:58:33.699Z,3.70
2022-10-10T06:01:05.750Z,5.45
2022-10-10T06:06:02.169Z,4.53
2022-10-10T06:08:31.366Z,6.47
2022-10-10T06:11:03.995Z,6.50
2022-10-10T06:13:33.708Z,5.60
2022-10-10T06:16:01.787Z,4.72
2022-10-10T06:18:29.864Z,3.75
2022-10-10T06:21:02.964Z,6.80
2022-10-10T06:23:31.040Z,5.03
2022-10-10T06:25:59.211Z,4.68
2022-10-10T06:28:27.585Z,4.90
2022-10-10T06:31:01.373Z,5.20
2022-10-10T06:33:29.718Z,7.35
2022-10-10T06:35:57.827Z,6.93
2022-10-10T06:38:27.576Z,24.50
2022-10-10T06:40:59.738Z,19.65
2022-10-10T06:43:28.542Z,48.03
2022-10-10T06:45:58.526Z,28.95
2022-10-10T06:48:27.082Z,13.98
2022-10-10T06:50:59.854Z,7.93
2022-10-10T06:53:28.700Z,7.00
2022-10-10T06:55:57.561Z,9.45
2022-10-10T06:58:27.295Z,7.50
2022-10-10T07:00:58.459Z,8.38
2022-10-10T07:03:27.108Z,6.15
2022-10-10T07:05:57.097Z,7.15
2022-10-10T07:08:26.019Z,10.10
2022-10-10T07:10:54.105Z,7.45
2022-10-10T07:13:22.591Z,8.30
2022-10-10T07:15:50.766Z,6.45
2022-10-10T07:18:21.193Z,5.35
2022-10-10T07:20:49.615Z,6.35
2022-10-10T07:23:17.945Z,6.10
2022-10-10T07:25:45.999Z,9.93
2022-10-10T07:28:14.133Z,6.03
2022-10-10T07:30:43.838Z,6.18
2022-10-10T07:33:12.423Z,6.57
2022-10-10T07:35:41.871Z,6.10
2022-10-10T07:38:12.055Z,7.57
2022-10-10T07:40:40.950Z,5.40
2022-10-10T07:43:09.018Z,5.72
2022-10-10T07:45:37.852Z,7.20
2022-10-10T07:48:07.382Z,3.65
2022-10-10T07:50:35.659Z,4.18
2022-10-10T07:53:06.162Z,4.53
2022-10-10T07:55:34.786Z,6.07
2022-10-10T07:58:03.781Z,7.85
2022-10-10T08:00:31.886Z,37.80
2022-10-10T08:02:59.915Z,35.20
2022-10-10T08:05:28.008Z,8.38
2022-10-10T08:07:56.044Z,11.55
2022-10-10T08:10:25.830Z,8.55
2022-10-10T08:12:53.838Z,7.07
2022-10-10T08:15:21.887Z,9.20
2022-10-10T08:17:50.099Z,8.40
2022-10-10T08:20:18.582Z,13.45
2022-10-10T08:22:46.773Z,16.55
2022-10-10T08:25:15.016Z,11.15
2022-10-10T08:27:44.474Z,12.05
2022-10-10T08:30:13.376Z,15.05
2022-10-10T08:32:41.399Z,15.13
2022-10-10T08:35:09.727Z,7.57
2022-10-10T08:37:37.764Z,10.10
2022-10-10T08:40:06.992Z,4.60
2022-10-10T08:42:46.909Z,6.03
2022-10-10T08:45:21.115Z,6.68
2022-10-10T08:47:54.947Z,6.35
2022-10-10T08:50:27.943Z,9.13
2022-10-10T08:52:59.214Z,5.70
2022-10-10T08:55:33.114Z,7.22
2022-10-10T08:58:05.918Z,5.53
2022-10-10T09:00:42.927Z,7.50
2022-10-10T09:03:21.314Z,8.05
2022-10-10T09:06:02.167Z,5.07
2022-10-10T09:08:40.429Z,4.93
2022-10-10T09:11:19.863Z,5.78
2022-10-10T09:13:54.930Z,7.68
2022-10-10T09:16:34.677Z,5.70
2022-10-10T09:19:18.177Z,8.65
2022-10-10T09:21:47.179Z,5.90
2022-10-10T09:24:21.354Z,7.03
2022-10-10T09:26:52.672Z,5.30
2022-10-10T09:29:31.631Z,4.85
2022-10-10T09:32:06.635Z,6.45
2022-10-10T09:34:39.958Z,7.85
2022-10-10T09:37:24.273Z,6.82
2022-10-10T09:40:02.167Z,6.75
2022-10-10T09:42:35.748Z,6.60
2022-10-10T09:45:04.918Z,7.10
2022-10-10T09:47:34.899Z,6.40
2022-10-10T09:52:33.376Z,5.90
2022-10-10T09:55:03.410Z,5.32
2022-10-10T09:57:37.751Z,8.77
2022-10-10T10:00:28.103Z,6.95
2022-10-10T10:03:14.396Z,9.15
2022-10-10T10:05:45.267Z,7.85
2022-10-10T10:08:28.050Z,6.82
2022-10-10T10:11:00.041Z,9.15
2022-10-10T10:13:31.695Z,7.20
2022-10-10T10:16:06.623Z,6.05
2022-10-10T10:18:41.680Z,6.03
2022-10-10T10:21:17.675Z,7.38
2022-10-10T10:23:52.653Z,6.55
2022-10-10T10:26:23.987Z,8.00
2022-10-10T10:28:53.596Z,5.82
2022-10-10T10:31:48.188Z,6.18
2022-10-10T10:34:42.856Z,7.40
2022-10-10T10:37:21.273Z,7.03
2022-10-10T10:40:12.455Z,8.43
2022-10-10T10:42:55.342Z,6.68
2022-10-10T10:45:31.991Z,7.47
2022-10-10T10:48:09.063Z,9.45
2022-10-10T10:50:47.157Z,10.52
2022-10-10T10:53:26.426Z,7.32
2022-10-10T10:56:06.276Z,9.15
2022-10-10T10:59:16.097Z,10.43
2022-10-10T11:01:55.792Z,9.43
2022-10-10T11:05:19.393Z,6.38
2022-10-10T11:07:37.719Z,8.70
2022-10-10T11:10:17.893Z,8.77
2022-10-10T11:12:56.124Z,13.75
2022-10-10T11:15:54.107Z,9.25
2022-10-10T11:18:20.519Z,10.18
2022-10-10T11:20:53.791Z,6.38
2022-10-10T11:23:26.196Z,6.95
2022-10-10T11:25:58.207Z,9.85
2022-10-10T11:28:31.380Z,10.13
2022-10-10T11:31:03.603Z,9.98
2022-10-10T11:33:35.278Z,11.90
2022-10-10T11:36:08.048Z,7.60
2022-10-10T11:38:44.642Z,11.85
2022-10-10T11:41:18.242Z,9.95
2022-10-10T11:43:50.374Z,9.25
2022-10-10T11:46:27.519Z,10.40
2022-10-10T11:49:02.427Z,7.30
2022-10-10T11:51:41.372Z,7.18
2022-10-10T11:54:21.818Z,8.88
2022-10-10T11:56:52.052Z,10.65
2022-10-10T11:59:26.715Z,8.38
2022-10-10T12:04:34.762Z,10.07
2022-10-10T12:07:07.640Z,9.13
2022-10-10T12:09:42.997Z,9.30
2022-10-10T12:12:16.241Z,8.25
2022-10-10T12:14:53.984Z,9.05
2022-10-10T12:17:25.617Z,8.65
2022-10-10T12:19:54.245Z,8.05
2022-10-10T12:22:25.180Z,9.15
2022-10-10T12:25:24.588Z,5.78
2022-10-10T12:28:23.510Z,7.70
2022-10-10T12:31:20.415Z,8.02
2022-10-10T12:34:14.891Z,6.10
2022-10-10T12:36:58.532Z,7.07
2022-10-10T12:39:37.013Z,7.93
2022-10-10T12:42:28.732Z,8.07
2022-10-10T12:44:56.799Z,8.23
2022-10-10T12:48:04.026Z,8.75
2022-10-10T12:50:33.871Z,8.63
2022-10-10T12:53:04.163Z,7.85
2022-10-10T12:55:40.362Z,6.75
2022-10-10T12:58:26.197Z,7.70
2022-10-10T13:00:56.370Z,9.68
2022-10-10T13:03:30.289Z,8.55
2022-10-10T13:06:04.000Z,6.22
2022-10-10T13:08:33.135Z,9.15
2022-10-10T13:11:07.014Z,8.75
2022-10-10T13:13:36.906Z,7.80
2022-10-10T13:16:10.607Z,4.35
2022-10-10T13:18:40.656Z,7.53
2022-10-10T13:21:10.548Z,8.50
2022-10-10T13:23:43.065Z,8.60
2022-10-10T13:26:23.075Z,6.45
2022-10-10T13:28:54.383Z,5.85
2022-10-10T13:31:22.823Z,4.60
2022-10-10T13:33:50.896Z,7.63
2022-10-10T13:36:23.134Z,7.90
2022-10-10T13:38:52.027Z,6.88
2022-10-10T13:41:20.836Z,6.20
2022-10-10T13:43:49.066Z,5.57
2022-10-10T13:46:24.334Z,9.77
2022-10-10T13:48:52.390Z,5.28
2022-10-10T13:51:20.614Z,8.32
2022-10-10T13:53:53.155Z,7.38
2022-10-10T13:56:27.734Z,6.22
2022-10-10T13:58:58.239Z,7.22
2022-10-10T14:01:34.746Z,5.47
2022-10-10T14:04:09.011Z,6.35
2022-10-10T14:06:37.438Z,5.80
2022-10-10T14:09:12.890Z,8.02
2022-10-10T14:11:43.455Z,5.82
2022-10-10T14:14:24.596Z,8.15
2022-10-10T14:17:01.511Z,7.30
2022-10-10T14:19:30.331Z,5.32
2022-10-10T14:21:58.571Z,5.88
2022-10-10T14:24:27.106Z,5.47
2022-10-10T14:26:55.139Z,4.88
2022-10-10T14:29:24.240Z,8.90
2022-10-10T14:31:52.391Z,7.38
2022-10-10T14:34:21.813Z,8.32
2022-10-10T14:36:51.146Z,6.53
2022-10-10T14:39:20.511Z,5.07
2022-10-10T14:41:48.556Z,4.95
2022-10-10T14:44:16.595Z,5.00
2022-10-10T14:46:44.726Z,6.65
2022-10-10T14:49:19.706Z,7.90
2022-10-10T14:51:49.459Z,7.50
2022-10-10T14:54:17.495Z,7.95
2022-10-10T14:57:08.680Z,7.20
2022-10-10T14:59:47.351Z,10.80
2022-10-10T15:02:18.737Z,9.18
2022-10-10T15:04:46.782Z,7.85
2022-10-10T15:07:16.592Z,4.63
2022-10-10T15:10:17.440Z,6.90
2022-10-10T15:12:33.701Z,10.00
2022-10-10T15:15:01.726Z,4.32
2022-10-10T15:17:31.058Z,12.15
2022-10-10T15:19:59.126Z,10.15
2022-10-10T15:22:30.095Z,5.55
2022-10-10T15:24:58.359Z,7.70
2022-10-10T15:27:28.010Z,6.03
2022-10-10T15:29:56.458Z,7.03
2022-10-10T15:32:24.539Z,7.85
2022-10-10T15:34:53.447Z,5.88
2022-10-10T15:37:21.540Z,7.18
2022-10-10T15:39:50.933Z,4.93
2022-10-10T15:42:22.956Z,6.05
2022-10-10T15:44:52.145Z,6.70
2022-10-10T15:47:21.240Z,7.43
2022-10-10T15:49:49.885Z,6.78
2022-10-10T15:52:18.432Z,7.80
2022-10-10T15:54:50.753Z,7.57
2022-10-10T15:57:19.250Z,6.55
2022-10-10T15:59:47.907Z,5.80
2022-10-10T16:02:16.622Z,6.35
2022-10-10T16:04:45.105Z,8.13
2022-10-10T16:07:28.310Z,5.70
2022-10-10T16:10:01.178Z,8.15
2022-10-10T16:14:57.147Z,4.75
2022-10-10T16:17:25.216Z,7.15
2022-10-10T16:19:53.270Z,5.88
2022-10-10T16:22:21.447Z,9.75
2022-10-10T16:25:10.225Z,5.57
2022-10-10T16:27:39.706Z,7.55
2022-10-10T16:30:09.040Z,7.80
2022-10-10T16:32:42.124Z,8.77
2022-10-10T16:35:11.407Z,8.57
2022-10-10T16:37:40.025Z,8.95
2022-10-10T16:40:09.047Z,9.85
2022-10-10T16:42:38.531Z,7.68
2022-10-10T16:45:07.618Z,5.80
2022-10-10T16:47:36.069Z,5.53
2022-10-10T16:50:05.082Z,7.68
2022-10-10T16:52:37.841Z,9.55
2022-10-10T16:55:07.950Z,8.25
2022-10-10T16:57:36.381Z,7.30
2022-10-10T17:00:07.570Z,6.82
2022-10-10T17:02:38.603Z,4.70
2022-10-10T17:05:07.702Z,6.60
2022-10-10T17:07:35.951Z,7.10
2022-10-10T17:10:04.068Z,5.47
2022-10-10T17:12:32.098Z,7.80
2022-10-10T17:15:00.138Z,6.55
2022-10-10T17:17:29.591Z,6.63
2022-10-10T17:19:57.904Z,5.57
2022-10-10T17:22:25.910Z,9.23
2022-10-10T17:24:53.957Z,8.82
2022-10-10T17:27:22.054Z,6.60
2022-10-10T17:29:52.879Z,7.15
2022-10-10T17:32:21.072Z,8.00
2022-10-10T17:34:50.702Z,5.80
2022-10-10T17:37:18.759Z,11.90
2022-10-10T17:39:46.868Z,7.18
2022-10-10T17:42:14.977Z,12.07
2022-10-10T17:44:49.557Z,6.90
2022-10-10T17:47:18.421Z,3.95
2022-10-10T17:49:47.027Z,6.85
2022-10-10T17:52:20.367Z,5.38
2022-10-10T17:54:49.231Z,4.90
2022-10-10T17:57:17.393Z,10.50
2022-10-10T17:59:45.495Z,7.60
2022-10-10T18:02:16.685Z,10.38
2022-10-10T18:04:44.986Z,11.65
2022-10-10T18:07:13.682Z,11.38
2022-10-10T18:09:43.363Z,7.70
2022-10-10T18:12:11.391Z,7.53
2022-10-10T18:14:39.469Z,10.95
2022-10-10T18:17:07.669Z,6.53
2022-10-10T18:19:35.722Z,6.90
2022-10-10T18:22:03.955Z,9.73
2022-10-10T18:24:31.979Z,9.27
2022-10-10T18:27:01.399Z,11.07
2022-10-10T18:29:29.444Z,12.25
2022-10-10T18:31:57.491Z,14.48
2022-10-10T18:34:25.527Z,15.35
2022-10-10T18:36:53.571Z,11.30
2022-10-10T18:39:21.582Z,13.18
2022-10-10T18:41:49.695Z,11.02
2022-10-10T18:44:20.159Z,9.95
2022-10-10T18:46:50.058Z,8.90
2022-10-10T18:49:18.114Z,8.00
2022-10-10T18:51:46.159Z,12.40
2022-10-10T18:54:16.554Z,6.70
2022-10-10T18:56:46.013Z,8.30
2022-10-10T18:59:16.942Z,10.93
2022-10-10T19:01:46.792Z,13.85
2022-10-10T19:04:16.044Z,10.45
2022-10-10T19:06:44.711Z,11.70
2022-10-10T19:09:14.946Z,9.68
2022-10-10T19:11:44.970Z,12.63
2022-10-10T19:14:15.838Z,11.60
2022-10-10T19:16:46.676Z,7.18
2022-10-10T19:19:16.997Z,10.85
2022-10-10T19:21:46.827Z,11.70
2022-10-10T19:24:19.460Z,11.63
2022-10-10T19:26:51.981Z,14.80
2022-10-10T19:29:20.890Z,16.58
2022-10-10T19:31:50.374Z,8.10
2022-10-10T19:34:18.446Z,11.65
2022-10-10T19:36:46.782Z,17.15
2022-10-10T19:39:15.036Z,12.82
2022-10-10T19:41:43.102Z,10.82
2022-10-10T19:44:11.184Z,13.52
2022-10-10T19:46:39.503Z,13.25
2022-10-10T19:49:08.930Z,9.88
2022-10-10T19:51:36.989Z,15.63
2022-10-10T19:54:05.186Z,15.85
2022-10-10T19:56:33.252Z,10.57
2022-10-10T19:59:04.411Z,9.73
2022-10-10T20:01:32.735Z,10.63
2022-10-10T20:04:01.092Z,12.30
2022-10-10T20:06:30.706Z,10.95
2022-10-10T20:08:58.891Z,13.35
2022-10-10T20:11:27.280Z,11.25
2022-10-10T20:13:55.854Z,11.13
2022-10-10T20:16:26.323Z,10.40
2022-10-10T20:18:56.026Z,10.27
2022-10-10T20:21:29.133Z,16.65
2022-10-10T20:23:59.475Z,11.25
2022-10-10T20:26:28.012Z,16.50
2022-10-10T20:28:57.456Z,10.70
2022-10-10T20:31:27.522Z,11.02
2022-10-10T20:33:57.908Z,21.88
2022-10-10T20:36:26.523Z,15.38
2022-10-10T20:38:55.218Z,16.48
2022-10-10T20:41:26.663Z,15.05
2022-10-10T20:43:59.085Z,12.93
2022-10-10T20:46:29.460Z,9.70
2022-10-10T20:48:58.533Z,12.10
2022-10-10T20:51:28.508Z,12.70
2022-10-10T20:53:58.688Z,10.15
2022-10-10T20:56:29.207Z,11.63
2022-10-10T20:58:57.386Z,11.93
2022-10-10T21:01:27.436Z,12.32
2022-10-10T21:03:55.876Z,12.57
2022-10-10T21:06:25.686Z,5.50
2022-10-10T21:08:54.291Z,9.70
2022-10-10T21:11:24.148Z,14.18
2022-10-10T21:13:56.449Z,13.10
2022-10-10T21:16:26.195Z,12.70
2022-10-10T21:18:57.933Z,9.18
2022-10-10T21:21:27.505Z,11.45
2022-10-10T21:23:56.746Z,11.82
2022-10-10T21:26:26.694Z,27.08
2022-10-10T21:28:57.024Z,31.23
2022-10-10T21:31:27.041Z,25.48
2022-10-10T21:33:55.422Z,14.13
2022-10-10T21:36:24.987Z,14.52
2022-10-10T21:38:53.274Z,12.73
2022-10-10T21:41:22.127Z,12.30
2022-10-10T21:43:52.187Z,11.30
2022-10-10T21:46:23.451Z,11.80
2022-10-10T21:48:52.379Z,12.32
2022-10-10T21:51:20.938Z,9.30
2022-10-10T21:53:49.558Z,12.52
2022-10-10T21:56:17.643Z,13.18
2022-10-10T21:58:46.320Z,12.27
2022-10-10T22:01:17.222Z,14.30
2022-10-10T22:03:48.411Z,8.88
2022-10-10T22:06:19.282Z,11.68
2022-10-10T22:08:48.067Z,12.45
2022-10-10T22:11:17.976Z,10.10
2022-10-10T22:13:46.348Z,7.65
2022-10-10T22:16:14.691Z,14.63
2022-10-10T22:18:43.431Z,13.80
2022-10-10T22:21:15.135Z,10.13
2022-10-10T22:23:43.625Z,15.85
2022-10-10T22:26:13.412Z,14.02
2022-10-10T22:28:41.882Z,14.43
2022-10-10T22:31:11.208Z,10.38
2022-10-10T22:33:39.300Z,11.30
2022-10-10T22:36:08.875Z,10.20
2022-10-10T22:38:41.288Z,7.88
2022-10-10T22:41:09.927Z,9.82
2022-10-10T22:43:38.213Z,9.77
2022-10-10T22:46:07.277Z,13.95
2022-10-10T22:48:36.242Z,10.68
2022-10-10T22:51:07.382Z,10.93
2022-10-10T22:53:36.300Z,10.03
2022-10-10T22:56:06.358Z,8.02
2022-10-10T22:58:34.687Z,6.45
2022-10-10T23:01:06.741Z,10.15
2022-10-10T23:03:35.058Z,7.80
2022-10-10T23:06:03.639Z,8.98
2022-10-10T23:08:32.289Z,5.65
2022-10-10T23:11:00.672Z,6.63
2022-10-10T23:13:30.223Z,8.88
2022-10-10T23:15:58.420Z,8.60
2022-10-10T23:18:26.535Z,5.22
2022-10-10T23:20:54.704Z,4.68
2022-10-10T23:23:22.798Z,3.90
2022-10-10T23:25:50.839Z,6.22
2022-10-10T23:28:19.552Z,3.47
2022-10-10T23:30:49.751Z,3.30
2022-10-10T23:33:18.357Z,4.07
2022-10-10T23:35:56.689Z,3.35
2022-10-10T23:38:24.797Z,4.03
2022-10-10T23:40:52.872Z,6.13
2022-10-10T23:43:21.051Z,6.97
2022-10-10T23:45:50.946Z,3.38
2022-10-10T23:48:19.508Z,5.68
2022-10-10T23:50:47.558Z,5.85
2022-10-10T23:53:15.804Z,5.05
2022-10-10T23:55:43.874Z,7.85
2022-10-10T23:58:11.924Z,7.38
